Time,TemperatureF,DewpointF,PressureIn,WindDirection,WindDirectionDegrees,WindSpeedMPH,WindSpeedGustMPH,Humidity,HourlyPrecipIn,Conditions,Clouds,dailyrainin,SoftwareType,DateUTC
2014-01-27 00:04:00,18.5,-1.3,29.59,SW,225,0.0,0.0,41,0.00,,,0.00,WUHU21623XXSP,2014-01-27 05:04:00,
2014-01-27 00:09:00,18.7,-1.1,29.59,WSW,247,0.0,3.0,41,0.00,,,0.00,WUHU21623XXSP,2014-01-27 05:09:00,
2014-01-27 00:14:00,18.7,-1.1,29.59,SSW,202,0.0,3.0,41,0.00,,,0.00,WUHU21623XXSP,2014-01-27 05:14:00,
2014-01-27 00:19:00,19.0,-0.8,29.59,SW,225,0.0,0.0,41,0.00,,,0.00,WUHU21623XXSP,2014-01-27 05:19:00,
2014-01-27 00:24:00,19.0,-0.8,29.59,SW,225,0.0,0.0,41,0.00,,,0.00,WUHU21623XXSP,2014-01-27 05:24:00,
2014-01-27 00:29:00,19.0,-0.8,29.59,SW,225,0.0,0.0,41,0.00,,,0.00,WUHU21623XXSP,2014-01-27 05:29:00,
2014-01-27 00:34:00,19.0,-0.8,29.58,South,180,0.0,0.0,41,0.00,,,0.00,WUHU21623XXSP,2014-01-27 05:34:00,
2014-01-27 00:39:00,19.2,-0.2,29.58,SW,225,0.0,0.0,42,0.00,,,0.00,WUHU21623XXSP,2014-01-27 05:39:00,
2014-01-27 00:44:00,19.6,0.2,29.58,SSW,202,0.0,0.0,42,0.00,,,0.00,WUHU21623XXSP,2014-01-27 05:44:00,
2014-01-27 00:49:00,19.6,0.2,29.58,SSW,202,0.0,0.0,42,0.00,,,0.00,WUHU21623XXSP,2014-01-27 05:49:00,
2014-01-27 00:54:00,19.8,0.3,29.57,South,180,0.0,0.0,42,0.00,,,0.00,WUHU21623XXSP,2014-01-27 05:54:00,
2014-01-27 00:59:00,19.8,0.8,29.57,SSE,157,0.0,0.0,43,0.00,,,0.00,WUHU21623XXSP,2014-01-27 05:59:00,
2014-01-27 01:04:00,19.8,0.8,29.57,SSW,202,0.0,0.0,43,0.00,,,0.00,WUHU21623XXSP,2014-01-27 06:04:00,
2014-01-27 01:09:00,19.8,0.8,29.57,East,90,0.0,0.0,43,0.00,,,0.00,WUHU21623XXSP,2014-01-27 06:09:00,
2014-01-27 01:14:00,19.9,1.4,29.57,SSW,202,0.0,3.0,44,0.00,,,0.00,WUHU21623XXSP,2014-01-27 06:14:00,
2014-01-27 01:19:00,20.1,1.6,29.57,SSW,202,0.0,3.0,44,0.00,,,0.00,WUHU21623XXSP,2014-01-27 06:19:00,
2014-01-27 01:24:00,20.3,2.2,29.57,SSW,202,0.0,0.0,45,0.00,,,0.00,WUHU21623XXSP,2014-01-27 06:24:00,
2014-01-27 01:29:00,20.3,2.2,29.56,ESE,112,0.0,0.0,45,0.00,,,0.00,WUHU21623XXSP,2014-01-27 06:29:00,
2014-01-27 01:34:00,20.3,2.2,29.57,South,180,0.0,0.0,45,0.00,,,0.00,WUHU21623XXSP,2014-01-27 06:34:00,
2014-01-27 01:39:00,20.3,2.2,29.57,South,180,0.0,0.0,45,0.00,,,0.00,WUHU21623XXSP,2014-01-27 06:39:00,
2014-01-27 01:44:00,20.1,2.0,29.56,ESE,112,0.0,0.0,45,0.00,,,0.00,WUHU21623XXSP,2014-01-27 06:44:00,
2014-01-27 01:49:00,20.1,2.0,29.56,ESE,112,0.0,0.0,45,0.00,,,0.00,WUHU21623XXSP,2014-01-27 06:49:00,
2014-01-27 01:54:00,20.1,2.0,29.56,ENE,67,0.0,0.0,45,0.00,,,0.00,WUHU21623XXSP,2014-01-27 06:54:00,
2014-01-27 01:59:00,20.1,2.5,29.56,SSE,157,0.0,0.0,46,0.00,,,0.00,WUHU21623XXSP,2014-01-27 06:59:00,
2014-01-27 02:04:00,20.1,2.5,29.56,SE,135,0.0,0.0,46,0.00,,,0.00,WUHU21623XXSP,2014-01-27 07:04:00,
2014-01-27 02:09:00,20.3,2.7,29.56,SSW,202,0.0,0.0,46,0.00,,,0.00,WUHU21623XXSP,2014-01-27 07:09:00,
2014-01-27 02:14:00,20.5,3.3,29.55,ENE,67,0.0,0.0,47,0.00,,,0.00,WUHU21623XXSP,2014-01-27 07:14:00,
2014-01-27 02:19:00,20.7,3.5,29.55,ENE,67,0.0,0.0,47,0.00,,,0.00,WUHU21623XXSP,2014-01-27 07:19:00,
2014-01-27 02:24:00,20.7,3.5,29.55,SE,135,0.0,0.0,47,0.00,,,0.00,WUHU21623XXSP,2014-01-27 07:24:00,
2014-01-27 02:29:00,20.7,3.9,29.55,South,180,0.0,0.0,48,0.00,,,0.00,WUHU21623XXSP,2014-01-27 07:29:00,
2014-01-27 02:34:00,20.7,3.9,29.54,South,180,0.0,0.0,48,0.00,,,0.00,WUHU21623XXSP,2014-01-27 07:34:00,
2014-01-27 02:39:00,20.7,3.9,29.54,South,180,0.0,0.0,48,0.00,,,0.00,WUHU21623XXSP,2014-01-27 07:39:00,
2014-01-27 02:44:00,20.8,4.1,29.54,ESE,112,0.0,0.0,48,0.00,,,0.00,WUHU21623XXSP,2014-01-27 07:44:00,
2014-01-27 02:49:00,20.8,4.1,29.54,ESE,112,0.0,0.0,48,0.00,,,0.00,WUHU21623XXSP,2014-01-27 07:49:00,
2014-01-27 02:54:00,20.8,4.6,29.53,ESE,112,0.0,0.0,49,0.00,,,0.00,WUHU21623XXSP,2014-01-27 07:54:00,
2014-01-27 02:59:00,20.8,4.6,29.53,East,90,0.0,0.0,49,0.00,,,0.00,WUHU21623XXSP,2014-01-27 07:59:00,
2014-01-27 03:04:00,21.2,5.4,29.52,ENE,67,0.0,0.0,50,0.00,,,0.00,WUHU21623XXSP,2014-01-27 08:04:00,
2014-01-27 03:09:00,21.2,5.4,29.52,SE,135,0.0,0.0,50,0.00,,,0.00,WUHU21623XXSP,2014-01-27 08:09:00,
2014-01-27 03:14:00,21.4,5.5,29.51,ESE,112,0.0,0.0,50,0.00,,,0.00,WUHU21623XXSP,2014-01-27 08:14:00,
2014-01-27 03:19:00,21.4,5.9,29.51,ESE,112,0.0,1.0,51,0.00,,,0.00,WUHU21623XXSP,2014-01-27 08:19:00,
2014-01-27 03:24:00,21.6,6.1,29.51,ESE,112,0.0,1.0,51,0.00,,,0.00,WUHU21623XXSP,2014-01-27 08:24:00,
2014-01-27 03:29:00,21.6,6.1,29.51,SSE,157,0.0,4.0,51,0.00,,,0.00,WUHU21623XXSP,2014-01-27 08:29:00,
2014-01-27 03:34:00,21.6,6.5,29.50,ENE,67,0.0,4.0,52,0.00,,,0.00,WUHU21623XXSP,2014-01-27 08:34:00,
2014-01-27 03:39:00,21.9,6.9,29.50,ENE,67,0.0,0.0,52,0.00,,,0.00,WUHU21623XXSP,2014-01-27 08:39:00,
2014-01-27 03:44:00,21.9,7.3,29.50,ESE,112,0.0,3.0,53,0.00,,,0.00,WUHU21623XXSP,2014-01-27 08:44:00,
2014-01-27 03:49:00,22.1,7.5,29.50,SE,135,0.0,3.0,53,0.00,,,0.00,WUHU21623XXSP,2014-01-27 08:49:00,
2014-01-27 03:54:00,22.3,8.0,29.49,ENE,67,0.0,3.0,54,0.00,,,0.00,WUHU21623XXSP,2014-01-27 08:54:00,
2014-01-27 03:59:00,22.5,8.2,29.49,ESE,112,0.0,3.0,54,0.00,,,0.00,WUHU21623XXSP,2014-01-27 08:59:00,
2014-01-27 04:04:00,22.5,8.6,29.48,East,90,0.0,4.0,55,0.00,,,0.00,WUHU21623XXSP,2014-01-27 09:04:00,
2014-01-27 04:09:00,22.6,8.8,29.48,SSE,157,0.0,4.0,55,0.00,,,0.00,WUHU21623XXSP,2014-01-27 09:09:00,
2014-01-27 04:14:00,22.6,9.2,29.47,SE,135,0.0,5.0,56,0.00,,,0.00,WUHU21623XXSP,2014-01-27 09:14:00,
2014-01-27 04:19:00,22.8,9.4,29.46,East,90,0.0,5.0,56,0.00,,,0.00,WUHU21623XXSP,2014-01-27 09:19:00,
2014-01-27 04:24:00,23.2,10.1,29.46,NNE,22,0.0,4.0,57,0.00,,,0.00,WUHU21623XXSP,2014-01-27 09:24:00,
2014-01-27 04:29:00,23.4,11.1,29.46,SSE,157,0.0,4.0,59,0.00,,,0.00,WUHU21623XXSP,2014-01-27 09:29:00,
2014-01-27 04:34:00,23.9,12.0,29.46,SSW,202,0.0,4.0,60,0.00,,,0.00,WUHU21623XXSP,2014-01-27 09:34:00,
2014-01-27 04:39:00,24.3,12.7,29.46,NE,45,4.0,4.0,61,0.00,,,0.00,WUHU21623XXSP,2014-01-27 09:39:00,
2014-01-27 04:44:00,25.0,13.8,29.46,SSW,202,0.0,4.0,62,0.00,,,0.00,WUHU21623XXSP,2014-01-27 09:44:00,
2014-01-27 04:49:00,25.7,15.1,29.46,South,180,0.0,3.0,64,0.00,,,0.00,WUHU21623XXSP,2014-01-27 09:49:00,
2014-01-27 04:54:00,26.2,16.0,29.46,WNW,292,3.0,3.0,65,0.00,,,0.00,WUHU21623XXSP,2014-01-27 09:54:00,
2014-01-27 04:59:00,26.6,16.3,29.46,WSW,247,0.0,5.0,65,0.00,,,0.00,WUHU21623XXSP,2014-01-27 09:59:00,
2014-01-27 05:04:00,26.8,16.5,29.46,WSW,247,0.0,5.0,65,0.00,,,0.00,WUHU21623XXSP,2014-01-27 10:04:00,
2014-01-27 05:09:00,26.8,16.5,29.46,SW,225,0.0,0.0,65,0.00,,,0.00,WUHU21623XXSP,2014-01-27 10:09:00,
2014-01-27 05:14:00,26.8,16.5,29.45,SSW,202,2.0,3.0,65,0.00,,,0.00,WUHU21623XXSP,2014-01-27 10:14:00,
2014-01-27 05:19:00,27.0,16.3,29.46,WSW,247,0.0,3.0,64,0.00,,,0.00,WUHU21623XXSP,2014-01-27 10:19:00,
2014-01-27 05:24:00,27.0,16.3,29.46,SSW,202,0.0,2.0,64,0.00,,,0.00,WUHU21623XXSP,2014-01-27 10:24:00,
2014-01-27 05:29:00,27.0,16.3,29.45,ESE,112,0.0,2.0,64,0.00,,,0.00,WUHU21623XXSP,2014-01-27 10:29:00,
2014-01-27 05:34:00,27.3,16.7,29.44,NE,45,0.0,3.0,64,0.00,,,0.00,WUHU21623XXSP,2014-01-27 10:34:00,
2014-01-27 05:39:00,27.3,16.7,29.44,SSE,157,0.0,3.0,64,0.00,,,0.00,WUHU21623XXSP,2014-01-27 10:39:00,
2014-01-27 05:44:00,27.3,17.1,29.43,SSW,202,0.0,2.0,65,0.00,,,0.00,WUHU21623XXSP,2014-01-27 10:44:00,
2014-01-27 05:49:00,27.7,17.4,29.43,SSW,202,1.0,1.0,65,0.00,,,0.00,WUHU21623XXSP,2014-01-27 10:49:00,
2014-01-27 05:54:00,27.9,17.6,29.43,South,180,0.0,3.0,65,0.00,,,0.00,WUHU21623XXSP,2014-01-27 10:54:00,
2014-01-27 05:59:00,28.0,17.8,29.43,SW,225,0.0,3.0,65,0.00,,,0.00,WUHU21623XXSP,2014-01-27 10:59:00,
2014-01-27 06:04:00,28.2,18.3,29.43,WNW,292,0.0,2.0,66,0.00,,,0.00,WUHU21623XXSP,2014-01-27 11:04:00,
2014-01-27 06:09:00,28.6,18.7,29.43,SSW,202,0.0,4.0,66,0.00,,,0.00,WUHU21623XXSP,2014-01-27 11:09:00,
2014-01-27 06:14:00,28.9,19.3,29.43,WNW,292,0.0,4.0,67,0.00,,,0.00,WUHU21623XXSP,2014-01-27 11:14:00,
2014-01-27 06:19:00,29.1,19.5,29.43,South,180,0.0,5.0,67,0.00,,,0.00,WUHU21623XXSP,2014-01-27 11:19:00,
2014-01-27 06:24:00,29.3,19.7,29.43,NW,315,0.0,5.0,67,0.00,,,0.00,WUHU21623XXSP,2014-01-27 11:24:00,
2014-01-27 06:29:00,29.7,20.0,29.43,SSW,202,0.0,1.0,67,0.00,,,0.00,WUHU21623XXSP,2014-01-27 11:29:00,
2014-01-27 06:34:00,30.0,20.7,29.43,South,180,0.0,0.0,68,0.00,,,0.00,WUHU21623XXSP,2014-01-27 11:34:00,
2014-01-27 06:39:00,30.4,21.0,29.43,SW,225,0.0,2.0,68,0.00,,,0.00,WUHU21623XXSP,2014-01-27 11:39:00,
2014-01-27 06:44:00,30.4,21.0,29.42,ESE,112,0.0,2.0,68,0.00,,,0.00,WUHU21623XXSP,2014-01-27 11:44:00,
2014-01-27 06:49:00,30.7,21.4,29.42,ESE,112,0.0,6.0,68,0.00,,,0.00,WUHU21623XXSP,2014-01-27 11:49:00,
2014-01-27 06:54:00,30.7,21.4,29.42,ESE,112,0.0,6.0,68,0.00,,,0.00,WUHU21623XXSP,2014-01-27 11:54:00,
2014-01-27 06:59:00,30.9,21.6,29.42,South,180,0.0,3.0,68,0.00,,,0.00,WUHU21623XXSP,2014-01-27 11:59:00,
2014-01-27 07:04:00,31.1,21.7,29.42,South,180,0.0,5.0,68,0.00,,,0.00,WUHU21623XXSP,2014-01-27 12:04:00,
2014-01-27 07:09:00,31.5,22.1,29.42,SW,225,0.0,5.0,68,0.00,,,0.00,WUHU21623XXSP,2014-01-27 12:09:00,
2014-01-27 07:15:00,31.6,22.3,29.42,WNW,292,0.0,2.0,68,0.00,,,0.00,WUHU21623XXSP,2014-01-27 12:15:00,
2014-01-27 07:20:00,31.6,22.3,29.41,SE,135,0.0,4.0,68,0.00,,,0.00,WUHU21623XXSP,2014-01-27 12:20:00,
2014-01-27 07:25:00,32.2,22.8,29.41,South,180,3.0,5.0,68,0.00,,,0.00,WUHU21623XXSP,2014-01-27 12:25:00,
2014-01-27 07:30:00,32.2,23.2,29.41,ENE,67,4.0,5.0,69,0.00,,,0.00,WUHU21623XXSP,2014-01-27 12:30:00,
2014-01-27 07:35:00,32.4,23.3,29.40,SE,135,0.0,6.0,69,0.00,,,0.00,WUHU21623XXSP,2014-01-27 12:35:00,
2014-01-27 07:40:00,32.5,23.5,29.40,SSW,202,0.0,7.0,69,0.00,,,0.00,WUHU21623XXSP,2014-01-27 12:40:00,
2014-01-27 07:45:00,32.7,23.6,29.39,SSW,202,0.0,7.0,69,0.00,,,0.00,WUHU21623XXSP,2014-01-27 12:45:00,
2014-01-27 07:50:00,33.1,24.0,29.39,South,180,0.0,9.0,69,0.00,,,0.00,WUHU21623XXSP,2014-01-27 12:50:00,
2014-01-27 07:55:00,33.4,24.3,29.38,South,180,7.0,9.0,69,0.00,,,0.00,WUHU21623XXSP,2014-01-27 12:55:00,
2014-01-27 08:00:00,33.6,24.5,29.38,SSW,202,0.0,7.0,69,0.00,,,0.00,WUHU21623XXSP,2014-01-27 13:00:00,
2014-01-27 08:05:00,33.8,24.6,29.38,North,0,0.0,11.0,69,0.00,,,0.00,WUHU21623XXSP,2014-01-27 13:05:00,
2014-01-27 08:10:00,34.2,24.6,29.39,SSW,202,0.0,11.0,68,0.00,,,0.00,WUHU21623XXSP,2014-01-27 13:10:00,
2014-01-27 08:15:00,34.2,24.6,29.39,South,180,0.0,9.0,68,0.00,,,0.00,WUHU21623XXSP,2014-01-27 13:15:00,
2014-01-27 08:20:00,34.5,24.6,29.39,South,180,2.0,7.0,67,0.00,,,0.00,WUHU21623XXSP,2014-01-27 13:20:00,
2014-01-27 08:25:00,34.5,24.6,29.38,WSW,247,0.0,7.0,67,0.00,,,0.00,WUHU21623XXSP,2014-01-27 13:25:00,
2014-01-27 08:30:00,34.7,24.4,29.39,East,90,0.0,6.0,66,0.00,,,0.00,WUHU21623XXSP,2014-01-27 13:30:00,
2014-01-27 08:35:00,34.9,24.6,29.38,SSW,202,0.0,7.0,66,0.00,,,0.00,WUHU21623XXSP,2014-01-27 13:35:00,
2014-01-27 08:40:00,35.2,24.6,29.39,West,270,3.0,7.0,65,0.00,,,0.00,WUHU21623XXSP,2014-01-27 13:40:00,
2014-01-27 08:45:00,35.2,24.6,29.39,West,270,0.0,7.0,65,0.00,,,0.00,WUHU21623XXSP,2014-01-27 13:45:00,
2014-01-27 08:50:00,35.4,24.4,29.40,North,0,0.0,5.0,64,0.00,,,0.00,WUHU21623XXSP,2014-01-27 13:50:00,
2014-01-27 08:55:00,35.6,24.6,29.40,WSW,247,0.0,3.0,64,0.00,,,0.00,WUHU21623XXSP,2014-01-27 13:55:00,
2014-01-27 09:00:00,35.8,24.4,29.40,West,270,0.0,3.0,63,0.00,,,0.00,WUHU21623XXSP,2014-01-27 14:00:00,
2014-01-27 09:05:00,35.8,24.4,29.40,East,90,7.0,7.0,63,0.00,,,0.00,WUHU21623XXSP,2014-01-27 14:05:00,
2014-01-27 09:10:00,36.0,24.6,29.41,West,270,0.0,7.0,63,0.00,,,0.00,WUHU21623XXSP,2014-01-27 14:10:00,
2014-01-27 09:15:00,36.1,24.7,29.40,West,270,0.0,7.0,63,0.00,,,0.00,WUHU21623XXSP,2014-01-27 14:15:00,
2014-01-27 09:20:00,36.3,24.5,29.40,South,180,0.0,8.0,62,0.00,,,0.00,WUHU21623XXSP,2014-01-27 14:20:00,
2014-01-27 09:25:00,36.3,24.5,29.40,South,180,0.0,9.0,62,0.00,,,0.00,WUHU21623XXSP,2014-01-27 14:25:00,
2014-01-27 09:30:00,36.3,24.5,29.40,SE,135,0.0,9.0,62,0.00,,,0.00,WUHU21623XXSP,2014-01-27 14:30:00,
2014-01-27 09:35:00,36.5,24.7,29.40,South,180,4.0,13.0,62,0.00,,,0.00,WUHU21623XXSP,2014-01-27 14:35:00,
2014-01-27 09:40:00,36.5,25.1,29.39,West,270,0.0,13.0,63,0.00,,,0.00,WUHU21623XXSP,2014-01-27 14:40:00,
2014-01-27 09:45:00,36.5,25.1,29.40,North,0,0.0,7.0,63,0.00,,,0.00,WUHU21623XXSP,2014-01-27 14:45:00,
2014-01-27 09:50:00,36.3,25.3,29.40,SSW,202,4.0,9.0,64,0.00,,,0.00,WUHU21623XXSP,2014-01-27 14:50:00,
2014-01-27 09:55:00,36.3,25.7,29.40,ESE,112,0.0,9.0,65,0.00,,,0.00,WUHU21623XXSP,2014-01-27 14:55:00,
2014-01-27 10:00:00,36.3,25.7,29.40,SW,225,5.0,7.0,65,0.00,,,0.00,WUHU21623XXSP,2014-01-27 15:00:00,
2014-01-27 10:05:00,36.1,25.8,29.39,East,90,0.0,7.0,66,0.00,,,0.00,WUHU21623XXSP,2014-01-27 15:05:00,
2014-01-27 10:10:00,36.1,25.8,29.39,WSW,247,7.0,7.0,66,0.00,,,0.00,WUHU21623XXSP,2014-01-27 15:10:00,
2014-01-27 10:15:00,36.1,26.2,29.39,SSW,202,0.0,7.0,67,0.00,,,0.00,WUHU21623XXSP,2014-01-27 15:15:00,
2014-01-27 10:20:00,36.1,26.2,29.39,WSW,247,4.0,6.0,67,0.00,,,0.00,WUHU21623XXSP,2014-01-27 15:20:00,
2014-01-27 10:25:00,36.1,26.6,29.38,SSW,202,0.0,6.0,68,0.00,,,0.00,WUHU21623XXSP,2014-01-27 15:25:00,
2014-01-27 10:30:00,36.3,27.1,29.39,South,180,5.0,7.0,69,0.00,,,0.00,WUHU21623XXSP,2014-01-27 15:30:00,
2014-01-27 10:35:00,36.5,27.3,29.38,South,180,4.0,7.0,69,0.00,,,0.00,WUHU21623XXSP,2014-01-27 15:35:00,
2014-01-27 10:40:00,36.5,27.3,29.38,WSW,247,0.0,6.0,69,0.00,,,0.00,WUHU21623XXSP,2014-01-27 15:40:00,
2014-01-27 10:45:00,36.5,27.3,29.37,SSW,202,0.0,7.0,69,0.00,,,0.00,WUHU21623XXSP,2014-01-27 15:45:00,
2014-01-27 10:50:00,36.5,27.7,29.37,SSE,157,0.0,9.0,70,0.00,,,0.00,WUHU21623XXSP,2014-01-27 15:50:00,
2014-01-27 10:55:00,36.5,27.7,29.37,SW,225,0.0,9.0,70,0.00,,,0.00,WUHU21623XXSP,2014-01-27 15:55:00,
2014-01-27 11:00:00,36.5,27.7,29.36,SSW,202,0.0,6.0,70,0.00,,,0.00,WUHU21623XXSP,2014-01-27 16:00:00,
2014-01-27 11:05:00,36.5,27.7,29.36,East,90,0.0,4.0,70,0.00,,,0.00,WUHU21623XXSP,2014-01-27 16:05:00,
2014-01-27 11:10:00,36.7,27.9,29.36,WSW,247,0.0,3.0,70,0.00,,,0.00,WUHU21623XXSP,2014-01-27 16:10:00,
2014-01-27 11:15:00,36.7,27.9,29.36,West,270,0.0,5.0,70,0.00,,,0.00,WUHU21623XXSP,2014-01-27 16:15:00,
2014-01-27 11:20:00,36.7,27.9,29.36,West,270,0.0,5.0,70,0.00,,,0.00,WUHU21623XXSP,2014-01-27 16:20:00,
2014-01-27 11:25:00,36.9,28.0,29.36,SW,225,0.0,7.0,70,0.00,,,0.00,WUHU21623XXSP,2014-01-27 16:25:00,
2014-01-27 11:30:00,36.9,28.0,29.37,WSW,247,3.0,7.0,70,0.00,,,0.00,WUHU21623XXSP,2014-01-27 16:30:00,
2014-01-27 11:35:00,36.9,28.0,29.36,WNW,292,4.0,5.0,70,0.00,,,0.00,WUHU21623XXSP,2014-01-27 16:35:00,
2014-01-27 11:40:00,36.9,28.0,29.37,WNW,292,5.0,5.0,70,0.00,,,0.00,WUHU21623XXSP,2014-01-27 16:40:00,
2014-01-27 11:45:00,37.0,28.2,29.36,SE,135,0.0,5.0,70,0.00,,,0.00,WUHU21623XXSP,2014-01-27 16:45:00,
2014-01-27 11:50:00,37.2,28.4,29.36,WSW,247,0.0,5.0,70,0.00,,,0.00,WUHU21623XXSP,2014-01-27 16:50:00,
2014-01-27 11:55:00,37.4,28.2,29.36,SSW,202,4.0,5.0,69,0.00,,,0.00,WUHU21623XXSP,2014-01-27 16:55:00,
2014-01-27 12:00:00,37.6,28.4,29.36,West,270,0.0,5.0,69,0.00,,,0.00,WUHU21623XXSP,2014-01-27 17:00:00,
2014-01-27 12:05:00,37.8,28.5,29.35,WSW,247,0.0,5.0,69,0.00,,,0.00,WUHU21623XXSP,2014-01-27 17:05:00,
2014-01-27 12:10:00,38.1,28.5,29.36,SSW,202,0.0,4.0,68,0.00,,,0.00,WUHU21623XXSP,2014-01-27 17:10:00,
2014-01-27 12:15:00,38.3,28.6,29.35,SW,225,0.0,4.0,68,0.00,,,0.00,WUHU21623XXSP,2014-01-27 17:15:00,
2014-01-27 12:20:00,38.3,28.3,29.36,West,270,4.0,5.0,67,0.00,,,0.00,WUHU21623XXSP,2014-01-27 17:20:00,
2014-01-27 12:25:00,38.5,28.0,29.36,WSW,247,1.0,7.0,66,0.00,,,0.00,WUHU21623XXSP,2014-01-27 17:25:00,
2014-01-27 12:30:00,38.7,27.8,29.36,NW,315,0.0,7.0,65,0.00,,,0.00,WUHU21623XXSP,2014-01-27 17:30:00,
2014-01-27 12:35:00,38.7,27.1,29.36,NW,315,4.0,11.0,63,0.00,,,0.00,WUHU21623XXSP,2014-01-27 17:35:00,
2014-01-27 12:40:00,38.8,26.5,29.36,WNW,292,2.0,11.0,61,0.00,,,0.00,WUHU21623XXSP,2014-01-27 17:40:00,
2014-01-27 12:45:00,39.0,26.3,29.36,West,270,1.0,9.0,60,0.00,,,0.00,WUHU21623XXSP,2014-01-27 17:45:00,
2014-01-27 12:50:00,39.4,26.1,29.36,WSW,247,7.0,9.0,59,0.00,,,0.00,WUHU21623XXSP,2014-01-27 17:50:00,
2014-01-27 12:55:00,39.4,25.3,29.36,West,270,4.0,11.0,57,0.00,,,0.00,WUHU21623XXSP,2014-01-27 17:55:00,
2014-01-27 13:00:00,39.6,25.0,29.36,SW,225,3.0,12.0,56,0.00,,,0.00,WUHU21623XXSP,2014-01-27 18:00:00,
2014-01-27 13:05:00,39.4,24.4,29.37,West,270,4.0,15.0,55,0.00,,,0.00,WUHU21623XXSP,2014-01-27 18:05:00,
2014-01-27 13:10:00,39.4,24.4,29.37,West,270,4.0,15.0,55,0.00,,,0.00,WUHU21623XXSP,2014-01-27 18:10:00,
2014-01-27 13:15:00,39.2,23.8,29.37,WNW,292,7.0,16.0,54,0.00,,,0.00,WUHU21623XXSP,2014-01-27 18:15:00,
2014-01-27 13:20:00,38.8,23.1,29.37,WNW,292,4.0,16.0,53,0.00,,,0.00,WUHU21623XXSP,2014-01-27 18:20:00,
2014-01-27 13:25:00,38.5,22.7,29.38,West,270,7.0,12.0,53,0.00,,,0.00,WUHU21623XXSP,2014-01-27 18:25:00,
2014-01-27 13:30:00,37.9,21.8,29.38,NW,315,7.0,12.0,52,0.00,,,0.00,WUHU21623XXSP,2014-01-27 18:30:00,
2014-01-27 13:35:00,37.2,20.8,29.39,WNW,292,7.0,13.0,51,0.00,,,0.00,WUHU21623XXSP,2014-01-27 18:35:00,
2014-01-27 13:40:00,36.5,20.1,29.40,NNW,337,6.0,15.0,51,0.00,,,0.00,WUHU21623XXSP,2014-01-27 18:40:00,
2014-01-27 13:45:00,36.1,19.8,29.40,NNW,337,11.0,12.0,51,0.00,,,0.00,WUHU21623XXSP,2014-01-27 18:45:00,
2014-01-27 13:50:00,35.8,19.5,29.41,SW,225,3.0,14.0,51,0.00,,,0.00,WUHU21623XXSP,2014-01-27 18:50:00,
2014-01-27 13:55:00,35.2,19.4,29.41,NW,315,5.0,14.0,52,0.00,,,0.00,WUHU21623XXSP,2014-01-27 18:55:00,
2014-01-27 14:00:00,34.7,18.4,29.42,West,270,5.0,16.0,51,0.00,,,0.00,WUHU21623XXSP,2014-01-27 19:00:00,
2014-01-27 14:05:00,34.0,17.2,29.43,NW,315,10.0,16.0,50,0.00,,,0.00,WUHU21623XXSP,2014-01-27 19:05:00,
2014-01-27 14:10:00,33.4,16.7,29.43,West,270,0.0,17.0,50,0.00,,,0.00,WUHU21623XXSP,2014-01-27 19:10:00,
2014-01-27 14:15:00,32.9,16.3,29.43,WNW,292,0.0,17.0,50,0.00,,,0.00,WUHU21623XXSP,2014-01-27 19:15:00,
2014-01-27 14:20:00,32.7,16.1,29.43,West,270,5.0,10.0,50,0.00,,,0.00,WUHU21623XXSP,2014-01-27 19:20:00,
2014-01-27 14:25:00,32.4,15.8,29.43,West,270,3.0,11.0,50,0.00,,,0.00,WUHU21623XXSP,2014-01-27 19:25:00,
2014-01-27 14:30:00,32.2,15.6,29.44,NW,315,15.0,15.0,50,0.00,,,0.00,WUHU21623XXSP,2014-01-27 19:30:00,
2014-01-27 14:35:00,31.6,15.1,29.43,NW,315,6.0,15.0,50,0.00,,,0.00,WUHU21623XXSP,2014-01-27 19:35:00,
2014-01-27 14:40:00,31.1,14.6,29.44,West,270,4.0,10.0,50,0.00,,,0.00,WUHU21623XXSP,2014-01-27 19:40:00,
2014-01-27 14:45:00,30.9,14.5,29.45,NNW,337,7.0,12.0,50,0.00,,,0.00,WUHU21623XXSP,2014-01-27 19:45:00,
2014-01-27 14:50:00,30.6,14.1,29.45,NW,315,10.0,13.0,50,0.00,,,0.00,WUHU21623XXSP,2014-01-27 19:50:00,
2014-01-27 14:55:00,30.0,13.2,29.45,NW,315,8.0,13.0,49,0.00,,,0.00,WUHU21623XXSP,2014-01-27 19:55:00,
2014-01-27 15:00:00,29.7,12.8,29.46,WNW,292,9.0,13.0,49,0.00,,,0.00,WUHU21623XXSP,2014-01-27 20:00:00,
2014-01-27 15:05:00,29.1,11.8,29.46,West,270,8.0,13.0,48,0.00,,,0.00,WUHU21623XXSP,2014-01-27 20:05:00,
2014-01-27 15:10:00,28.8,11.5,29.47,WNW,292,4.0,15.0,48,0.00,,,0.00,WUHU21623XXSP,2014-01-27 20:10:00,
2014-01-27 15:15:00,28.6,10.8,29.47,NNW,337,9.0,15.0,47,0.00,,,0.00,WUHU21623XXSP,2014-01-27 20:15:00,
2014-01-27 15:20:00,27.9,9.7,29.48,WNW,292,10.0,17.0,46,0.00,,,0.00,WUHU21623XXSP,2014-01-27 20:20:00,
2014-01-27 15:25:00,27.0,7.3,29.48,NNW,337,17.0,17.0,43,0.00,,,0.00,WUHU21623XXSP,2014-01-27 20:25:00,
2014-01-27 15:30:00,26.2,5.7,29.49,NNW,337,7.0,17.0,41,0.00,,,0.00,WUHU21623XXSP,2014-01-27 20:30:00,
2014-01-27 15:35:00,25.7,4.7,29.49,NNW,337,5.0,16.0,40,0.00,,,0.00,WUHU21623XXSP,2014-01-27 20:35:00,
2014-01-27 15:41:00,25.5,4.6,29.49,WNW,292,8.0,13.0,40,0.00,,,0.00,WUHU21623XXSP,2014-01-27 20:41:00,
2014-01-27 15:46:00,25.3,3.8,29.50,WSW,247,3.0,17.0,39,0.00,,,0.00,WUHU21623XXSP,2014-01-27 20:46:00,
2014-01-27 15:51:00,25.2,3.0,29.50,WNW,292,5.0,17.0,38,0.00,,,0.00,WUHU21623XXSP,2014-01-27 20:51:00,
2014-01-27 15:56:00,24.8,1.5,29.51,NW,315,9.0,15.0,36,0.00,,,0.00,WUHU21623XXSP,2014-01-27 20:56:00,
2014-01-27 16:01:00,24.4,-0.1,29.52,NW,315,12.0,17.0,34,0.00,,,0.00,WUHU21623XXSP,2014-01-27 21:01:00,
2014-01-27 16:06:00,24.3,-1.5,29.52,WNW,292,10.0,17.0,32,0.00,,,0.00,WUHU21623XXSP,2014-01-27 21:06:00,
2014-01-27 16:11:00,23.9,-2.4,29.52,WSW,247,11.0,13.0,31,0.00,,,0.00,WUHU21623XXSP,2014-01-27 21:11:00,
2014-01-27 16:16:00,24.1,-2.2,29.53,NNE,22,5.0,13.0,31,0.00,,,0.00,WUHU21623XXSP,2014-01-27 21:16:00,
2014-01-27 16:21:00,23.9,-2.4,29.53,WNW,292,5.0,13.0,31,0.00,,,0.00,WUHU21623XXSP,2014-01-27 21:21:00,
2014-01-27 16:26:00,23.7,-7.3,29.54,WNW,292,11.0,22.0,25,0.00,,,0.00,WUHU21623XXSP,2014-01-27 21:26:00,
2014-01-27 16:31:00,23.7,-10.7,29.54,WSW,247,9.0,22.0,21,0.00,,,0.00,WUHU21623XXSP,2014-01-27 21:31:00,
2014-01-27 16:36:00,23.5,-12.7,29.54,WSW,247,9.0,16.0,19,0.00,,,0.00,WUHU21623XXSP,2014-01-27 21:36:00,
2014-01-27 16:41:00,23.4,-12.8,29.55,West,270,7.0,16.0,19,0.00,,,0.00,WUHU21623XXSP,2014-01-27 21:41:00,
2014-01-27 16:46:00,23.4,-12.8,29.55,NW,315,11.0,16.0,19,0.00,,,0.00,WUHU21623XXSP,2014-01-27 21:46:00,
2014-01-27 16:51:00,23.2,-13.0,29.56,NNW,337,4.0,13.0,19,0.00,,,0.00,WUHU21623XXSP,2014-01-27 21:51:00,
2014-01-27 16:56:00,22.8,-13.3,29.56,WNW,292,11.0,15.0,19,0.00,,,0.00,WUHU21623XXSP,2014-01-27 21:56:00,
2014-01-27 17:01:00,22.6,-13.5,29.56,West,270,7.0,15.0,19,0.00,,,0.00,WUHU21623XXSP,2014-01-27 22:01:00,
2014-01-27 17:06:00,22.5,-13.6,29.56,WNW,299,8.0,17.0,19,0.00,,,0.00,WUHU21623XXSP,2014-01-27 22:06:00,
2014-01-27 17:11:00,22.3,-13.7,29.57,WNW,298,8.0,17.0,19,0.00,,,0.00,WUHU21623XXSP,2014-01-27 22:11:00,
2014-01-27 17:16:00,21.9,-14.1,29.57,NW,315,5.0,17.0,19,0.00,,,0.00,WUHU21623XXSP,2014-01-27 22:16:00,
2014-01-27 17:21:00,21.6,-14.3,29.57,NW,315,7.0,16.0,19,0.00,,,0.00,WUHU21623XXSP,2014-01-27 22:21:00,
2014-01-27 17:26:00,21.4,-14.5,29.57,NNW,337,7.0,16.0,19,0.00,,,0.00,WUHU21623XXSP,2014-01-27 22:26:00,
2014-01-27 17:31:00,21.4,-14.5,29.58,WNW,292,4.0,13.0,19,0.00,,,0.00,WUHU21623XXSP,2014-01-27 22:31:00,
2014-01-27 17:36:00,21.2,-14.7,29.59,WNW,292,5.0,11.0,19,0.00,,,0.00,WUHU21623XXSP,2014-01-27 22:36:00,
2014-01-27 17:41:00,21.0,-14.8,29.59,WNW,292,5.0,13.0,19,0.00,,,0.00,WUHU21623XXSP,2014-01-27 22:41:00,
2014-01-27 17:46:00,20.7,-15.1,29.59,West,270,0.0,13.0,19,0.00,,,0.00,WUHU21623XXSP,2014-01-27 22:46:00,
2014-01-27 17:51:00,20.5,-15.2,29.59,NNW,337,5.0,16.0,19,0.00,,,0.00,WUHU21623XXSP,2014-01-27 22:51:00,
2014-01-27 17:56:00,20.3,-15.4,29.59,NNW,337,8.0,16.0,19,0.00,,,0.00,WUHU21623XXSP,2014-01-27 22:56:00,
2014-01-27 18:01:00,20.3,-15.4,29.60,WNW,292,5.0,13.0,19,0.00,,,0.00,WUHU21623XXSP,2014-01-27 23:01:00,
2014-01-27 18:06:00,20.1,-15.6,29.60,WNW,292,7.0,15.0,19,0.00,,,0.00,WUHU21623XXSP,2014-01-27 23:06:00,
2014-01-27 18:11:00,20.1,-15.6,29.61,NW,315,10.0,16.0,19,0.00,,,0.00,WUHU21623XXSP,2014-01-27 23:11:00,
2014-01-27 18:16:00,19.9,-15.7,29.61,WNW,292,7.0,16.0,19,0.00,,,0.00,WUHU21623XXSP,2014-01-27 23:16:00,
2014-01-27 18:21:00,19.6,-16.0,29.62,North,0,6.0,16.0,19,0.00,,,0.00,WUHU21623XXSP,2014-01-27 23:21:00,
2014-01-27 18:26:00,19.4,-16.2,29.62,West,270,3.0,16.0,19,0.00,,,0.00,WUHU21623XXSP,2014-01-27 23:26:00,
2014-01-27 18:31:00,19.2,-16.3,29.62,SW,225,5.0,11.0,19,0.00,,,0.00,WUHU21623XXSP,2014-01-27 23:31:00,
2014-01-27 18:36:00,19.2,-16.3,29.62,WNW,292,5.0,13.0,19,0.00,,,0.00,WUHU21623XXSP,2014-01-27 23:36:00,
2014-01-27 18:41:00,18.9,-16.6,29.62,WNW,292,7.0,13.0,19,0.00,,,0.00,WUHU21623XXSP,2014-01-27 23:41:00,
2014-01-27 18:46:00,18.9,-16.6,29.62,NW,315,9.0,13.0,19,0.00,,,0.00,WUHU21623XXSP,2014-01-27 23:46:00,
2014-01-27 18:51:00,18.9,-16.6,29.63,WNW,292,8.0,15.0,19,0.00,,,0.00,WUHU21623XXSP,2014-01-27 23:51:00,
2014-01-27 18:56:00,18.5,-16.9,29.63,NW,315,7.0,15.0,19,0.00,,,0.00,WUHU21623XXSP,2014-01-27 23:56:00,
2014-01-27 19:01:00,18.5,-16.9,29.63,West,270,4.0,13.0,19,0.00,,,0.00,WUHU21623XXSP,2014-01-28 00:01:00,
2014-01-27 19:06:00,18.5,-16.9,29.63,WSW,247,11.0,13.0,19,0.00,,,0.00,WUHU21623XXSP,2014-01-28 00:06:00,
2014-01-27 19:11:00,18.5,-16.9,29.64,WNW,292,8.0,12.0,19,0.00,,,0.00,WUHU21623XXSP,2014-01-28 00:11:00,
2014-01-27 19:16:00,18.5,-16.9,29.64,WNW,292,4.0,12.0,19,0.00,,,0.00,WUHU21623XXSP,2014-01-28 00:16:00,
2014-01-27 19:21:00,18.5,-16.9,29.65,NNW,337,3.0,10.0,19,0.00,,,0.00,WUHU21623XXSP,2014-01-28 00:21:00,
2014-01-27 19:26:00,18.3,-17.1,29.65,NW,315,4.0,12.0,19,0.00,,,0.00,WUHU21623XXSP,2014-01-28 00:26:00,
2014-01-27 19:31:00,18.3,-17.1,29.65,West,270,7.0,12.0,19,0.00,,,0.00,WUHU21623XXSP,2014-01-28 00:31:00,
2014-01-27 19:36:00,18.1,-17.2,29.66,WNW,292,5.0,11.0,19,0.00,,,0.00,WUHU21623XXSP,2014-01-28 00:36:00,
2014-01-27 19:41:00,18.0,-17.3,29.66,West,270,5.0,11.0,19,0.00,,,0.00,WUHU21623XXSP,2014-01-28 00:41:00,
2014-01-27 19:46:00,17.8,-17.5,29.67,West,270,9.0,16.0,19,0.00,,,0.00,WUHU21623XXSP,2014-01-28 00:46:00,
2014-01-27 19:51:00,17.8,-17.5,29.67,WNW,292,3.0,16.0,19,0.00,,,0.00,WUHU21623XXSP,2014-01-28 00:51:00,
2014-01-27 19:56:00,17.2,-18.0,29.67,WNW,292,6.0,11.0,19,0.00,,,0.00,WUHU21623XXSP,2014-01-28 00:56:00,
2014-01-27 20:01:00,17.2,-18.0,29.67,NNW,337,9.0,11.0,19,0.00,,,0.00,WUHU21623XXSP,2014-01-28 01:01:00,
2014-01-27 20:06:00,17.1,-18.1,29.67,NW,315,6.0,13.0,19,0.00,,,0.00,WUHU21623XXSP,2014-01-28 01:06:00,
2014-01-27 20:11:00,16.9,-18.2,29.67,West,270,7.0,20.0,19,0.00,,,0.00,WUHU21623XXSP,2014-01-28 01:11:00,
2014-01-27 20:16:00,16.7,-18.4,29.67,WNW,292,6.0,20.0,19,0.00,,,0.00,WUHU21623XXSP,2014-01-28 01:16:00,
2014-01-27 20:21:00,16.5,-18.6,29.67,NW,315,5.0,13.0,19,0.00,,,0.00,WUHU21623XXSP,2014-01-28 01:21:00,
2014-01-27 20:26:00,16.5,-18.6,29.67,WNW,292,6.0,13.0,19,0.00,,,0.00,WUHU21623XXSP,2014-01-28 01:26:00,
2014-01-27 20:31:00,16.5,-18.6,29.69,WNW,292,0.0,10.0,19,0.00,,,0.00,WUHU21623XXSP,2014-01-28 01:31:00,
2014-01-27 20:36:00,16.3,-18.7,29.69,NNW,337,11.0,12.0,19,0.00,,,0.00,WUHU21623XXSP,2014-01-28 01:36:00,
2014-01-27 20:41:00,16.2,-18.8,29.69,West,270,0.0,12.0,19,0.00,,,0.00,WUHU21623XXSP,2014-01-28 01:41:00,
2014-01-27 20:46:00,16.2,-18.8,29.68,West,270,4.0,10.0,19,0.00,,,0.00,WUHU21623XXSP,2014-01-28 01:46:00,
2014-01-27 20:51:00,16.0,-19.0,29.69,WNW,292,4.0,9.0,19,0.00,,,0.00,WUHU21623XXSP,2014-01-28 01:51:00,
2014-01-27 20:56:00,16.0,-19.0,29.69,West,270,5.0,16.0,19,0.00,,,0.00,WUHU21623XXSP,2014-01-28 01:56:00,
2014-01-27 21:01:00,16.0,-19.0,29.70,WNW,292,6.0,16.0,19,0.00,,,0.00,WUHU21623XXSP,2014-01-28 02:01:00,
2014-01-27 21:06:00,15.8,-19.2,29.70,West,270,3.0,11.0,19,0.00,,,0.00,WUHU21623XXSP,2014-01-28 02:06:00,
2014-01-27 21:11:00,15.6,-19.3,29.70,WNW,292,0.0,7.0,19,0.00,,,0.00,WUHU21623XXSP,2014-01-28 02:11:00,
2014-01-27 21:16:00,15.4,-19.5,29.71,WSW,247,0.0,7.0,19,0.00,,,0.00,WUHU21623XXSP,2014-01-28 02:16:00,
2014-01-27 21:21:00,15.4,-19.5,29.71,WNW,292,3.0,10.0,19,0.00,,,0.00,WUHU21623XXSP,2014-01-28 02:21:00,
2014-01-27 21:26:00,15.3,-19.6,29.70,WNW,292,6.0,10.0,19,0.00,,,0.00,WUHU21623XXSP,2014-01-28 02:26:00,
2014-01-27 21:31:00,15.3,-19.6,29.71,NW,315,3.0,11.0,19,0.00,,,0.00,WUHU21623XXSP,2014-01-28 02:31:00,
2014-01-27 21:36:00,15.3,-19.6,29.70,West,270,0.0,11.0,19,0.00,,,0.00,WUHU21623XXSP,2014-01-28 02:36:00,
2014-01-27 21:41:00,15.1,-19.7,29.71,NW,315,4.0,12.0,19,0.00,,,0.00,WUHU21623XXSP,2014-01-28 02:41:00,
2014-01-27 21:46:00,14.9,-19.9,29.71,WNW,292,6.0,12.0,19,0.00,,,0.00,WUHU21623XXSP,2014-01-28 02:46:00,
2014-01-27 21:51:00,14.9,-19.9,29.70,NW,315,6.0,10.0,19,0.00,,,0.00,WUHU21623XXSP,2014-01-28 02:51:00,
2014-01-27 21:56:00,14.7,-20.1,29.71,NNW,337,3.0,10.0,19,0.00,,,0.00,WUHU21623XXSP,2014-01-28 02:56:00,
2014-01-27 22:01:00,14.7,-20.1,29.71,NW,315,9.0,11.0,19,0.00,,,0.00,WUHU21623XXSP,2014-01-28 03:01:00,
2014-01-27 22:06:00,14.5,-20.2,29.72,NNW,337,9.0,11.0,19,0.00,,,0.00,WUHU21623XXSP,2014-01-28 03:06:00,
2014-01-27 22:11:00,14.4,-20.3,29.72,NW,315,9.0,11.0,19,0.00,,,0.00,WUHU21623XXSP,2014-01-28 03:11:00,
2014-01-27 22:16:00,14.4,-20.3,29.72,WNW,292,4.0,13.0,19,0.00,,,0.00,WUHU21623XXSP,2014-01-28 03:16:00,
2014-01-27 22:21:00,14.5,-20.2,29.72,WNW,292,5.0,13.0,19,0.00,,,0.00,WUHU21623XXSP,2014-01-28 03:21:00,
2014-01-27 22:26:00,14.4,-20.3,29.72,West,270,4.0,10.0,19,0.00,,,0.00,WUHU21623XXSP,2014-01-28 03:26:00,
2014-01-27 22:31:00,14.4,-20.3,29.72,NW,315,2.0,13.0,19,0.00,,,0.00,WUHU21623XXSP,2014-01-28 03:31:00,
2014-01-27 22:36:00,14.2,-20.5,29.72,WNW,292,9.0,13.0,19,0.00,,,0.00,WUHU21623XXSP,2014-01-28 03:36:00,
2014-01-27 22:41:00,14.2,-20.5,29.72,WNW,292,4.0,12.0,19,0.00,,,0.00,WUHU21623XXSP,2014-01-28 03:41:00,
2014-01-27 23:15:00,14.2,-20.5,29.74,West,270,0.0,0.0,19,0.00,,,0.00,WUHU21623XXSP,2014-01-28 04:15:00,